createdAt,value
2023-04-21T00:00:40.777Z,10.48
2023-04-21T00:05:43.512Z,10.73
2023-04-21T00:10:47.094Z,11.10
2023-04-21T00:15:49.927Z,9.75
2023-04-21T00:20:52.721Z,9.57
2023-04-21T00:25:55.304Z,10.40
2023-04-21T00:30:58.397Z,11.60
2023-04-21T00:36:01.587Z,9.77
2023-04-21T00:41:04.355Z,8.70
2023-04-21T00:46:06.979Z,9.80
2023-04-21T00:51:09.614Z,9.70
2023-04-21T00:56:12.561Z,9.40
2023-04-21T01:01:15.262Z,9.63
2023-04-21T01:06:20.771Z,9.05
2023-04-21T01:11:23.406Z,10.57
2023-04-21T01:16:27.058Z,9.60
2023-04-21T01:21:32.273Z,9.40
2023-04-21T01:26:37.036Z,9.32
2023-04-21T01:31:39.664Z,9.95
2023-04-21T01:36:43.823Z,10.20
2023-04-21T01:41:46.445Z,10.50
2023-04-21T01:46:50.154Z,10.07
2023-04-21T01:51:53.818Z,9.88
2023-04-21T01:56:56.635Z,9.85
2023-04-21T02:01:59.360Z,10.90
2023-04-21T02:07:02.446Z,10.18
2023-04-21T02:12:05.342Z,10.02
2023-04-21T02:17:07.937Z,10.00
2023-04-21T02:22:13.036Z,10.82
2023-04-21T02:27:15.825Z,9.77
2023-04-21T02:32:25.440Z,9.98
2023-04-21T02:37:28.396Z,9.63
2023-04-21T02:42:32.650Z,8.77
2023-04-21T02:47:35.519Z,8.13
2023-04-21T02:52:39.260Z,9.00
2023-04-21T02:57:41.995Z,8.02
2023-04-21T03:02:45.564Z,8.35
2023-04-21T03:07:48.307Z,8.77
2023-04-21T03:12:50.888Z,8.02
2023-04-21T03:17:53.670Z,9.03
2023-04-21T03:22:59.511Z,7.93
2023-04-21T03:28:02.306Z,8.63
2023-04-21T03:33:05.240Z,8.13
2023-04-21T03:38:08.948Z,9.65
2023-04-21T03:43:11.724Z,8.57
2023-04-21T03:48:14.825Z,8.65
2023-04-21T03:53:17.508Z,8.98
2023-04-21T03:58:20.189Z,9.15
2023-04-21T04:03:23.601Z,8.90
2023-04-21T04:08:26.541Z,8.63
2023-04-21T04:13:29.711Z,9.02
2023-04-21T04:18:32.439Z,8.70
2023-04-21T04:23:35.556Z,8.35
2023-04-21T04:28:38.601Z,8.32
2023-04-21T04:33:44.717Z,8.33
2023-04-21T04:38:47.486Z,8.60
2023-04-21T04:43:50.206Z,9.90
2023-04-21T04:48:52.911Z,8.05
2023-04-21T04:53:55.823Z,8.70
2023-04-21T04:58:58.500Z,9.30
2023-04-21T05:04:01.650Z,9.80
2023-04-21T05:09:05.209Z,9.05
2023-04-21T05:14:07.956Z,10.18
2023-04-21T05:19:11.136Z,9.15
2023-04-21T05:24:14.197Z,10.40
2023-04-21T05:29:17.124Z,11.20
2023-04-21T05:34:20.248Z,10.30
2023-04-21T05:39:23.045Z,10.82
2023-04-21T05:44:27.081Z,9.75
2023-04-21T05:49:30.221Z,9.40
2023-04-21T05:54:34.025Z,8.25
2023-04-21T05:59:36.965Z,8.85
2023-04-21T06:04:39.929Z,9.07
2023-04-21T06:09:43.145Z,9.40
2023-04-21T06:14:46.030Z,10.17
2023-04-21T06:19:53.287Z,8.90
2023-04-21T06:24:56.132Z,8.55
2023-04-21T06:29:58.976Z,10.43
2023-04-21T06:35:01.807Z,8.98
2023-04-21T06:40:05.211Z,9.73
2023-04-21T06:45:08.625Z,9.40
2023-04-21T06:50:11.337Z,9.48
2023-04-21T06:55:14.134Z,9.48
2023-04-21T07:00:17.520Z,9.00
2023-04-21T07:05:20.293Z,9.40
2023-04-21T07:10:23.335Z,8.50
2023-04-21T07:15:26.125Z,8.52
2023-04-21T07:20:28.866Z,7.93
2023-04-21T07:25:31.501Z,8.80
2023-04-21T07:30:34.299Z,7.57
2023-04-21T07:35:37.205Z,8.85
2023-04-21T07:40:40.035Z,7.60
2023-04-21T07:45:43.078Z,7.38
2023-04-21T07:50:45.873Z,7.38
2023-04-21T07:55:48.680Z,7.10
2023-04-21T08:00:51.518Z,7.55
2023-04-21T08:05:54.460Z,8.05
2023-04-21T08:10:57.365Z,7.97
2023-04-21T08:16:00.114Z,8.15
2023-04-21T08:21:02.938Z,7.40
2023-04-21T08:26:05.837Z,7.95
2023-04-21T08:31:09.199Z,7.72
2023-04-21T08:36:21.973Z,7.78
2023-04-21T08:41:31.431Z,7.00
2023-04-21T08:46:35.541Z,6.93
2023-04-21T08:51:38.439Z,7.32
2023-04-21T08:56:41.385Z,7.43
2023-04-21T09:02:08.918Z,6.47
2023-04-21T09:07:30.417Z,6.90
2023-04-21T09:12:33.605Z,6.37
2023-04-21T09:17:37.293Z,7.18
2023-04-21T09:22:40.230Z,7.30
2023-04-21T09:27:43.498Z,6.25
2023-04-21T09:32:46.446Z,5.57
2023-04-21T09:37:49.362Z,6.57
2023-04-21T09:42:52.148Z,5.53
2023-04-21T09:48:01.995Z,6.00
2023-04-21T09:53:08.206Z,6.15
2023-04-21T09:58:16.464Z,7.10
2023-04-21T10:03:23.409Z,6.23
2023-04-21T10:08:26.971Z,6.72
2023-04-21T10:13:30.692Z,6.45
2023-04-21T10:18:37.632Z,4.90
2023-04-21T10:23:43.983Z,6.38
2023-04-21T10:28:48.218Z,5.87
2023-04-21T10:34:09.051Z,5.05
2023-04-21T10:39:16.696Z,5.53
2023-04-21T10:44:19.619Z,5.07
2023-04-21T10:49:30.857Z,5.78
2023-04-21T10:54:50.348Z,5.17
2023-04-21T10:59:53.512Z,4.63
2023-04-21T11:04:56.768Z,4.18
2023-04-21T11:10:06.253Z,5.00
2023-04-21T11:15:11.941Z,4.47
2023-04-21T11:20:14.992Z,4.80
2023-04-21T11:25:18.883Z,4.82
2023-04-21T11:30:22.783Z,5.00
2023-04-21T11:35:25.574Z,4.68
2023-04-21T11:40:28.727Z,4.97
2023-04-21T11:45:31.971Z,4.10
2023-04-21T11:50:35.075Z,4.40
2023-04-21T11:55:37.696Z,4.15
2023-04-21T12:00:40.995Z,3.88
2023-04-21T12:05:43.856Z,4.88
2023-04-21T12:10:47.414Z,4.87
2023-04-21T12:15:50.413Z,4.65
2023-04-21T12:20:53.887Z,4.75
2023-04-21T12:25:56.860Z,4.78
2023-04-21T12:30:59.751Z,4.63
2023-04-21T12:36:02.683Z,4.67
2023-04-21T12:41:06.204Z,4.40
2023-04-21T12:46:09.160Z,4.53
2023-04-21T12:51:11.918Z,3.58
2023-04-21T12:56:14.925Z,3.90
2023-04-21T13:01:18.124Z,3.60
2023-04-21T13:06:21.041Z,3.70
2023-04-21T13:11:23.801Z,3.90
2023-04-21T13:16:29.391Z,3.78
2023-04-21T13:21:33.336Z,3.05
2023-04-21T13:26:36.170Z,3.63
2023-04-21T13:31:39.165Z,3.75
2023-04-21T13:36:42.188Z,3.65
2023-04-21T13:41:44.938Z,3.67
2023-04-21T13:46:47.960Z,3.72
2023-04-21T13:51:50.760Z,3.40
2023-04-21T13:56:53.541Z,3.65
2023-04-21T14:01:56.502Z,3.28
2023-04-21T14:06:59.323Z,3.50
2023-04-21T14:12:02.260Z,3.35
2023-04-21T14:17:05.147Z,3.37
2023-04-21T14:22:07.831Z,3.38
2023-04-21T14:27:11.034Z,3.05
2023-04-21T14:32:13.789Z,3.00
2023-04-21T14:37:16.503Z,2.95
2023-04-21T14:42:19.190Z,3.37
2023-04-21T14:47:22.748Z,3.50
2023-04-21T14:52:27.139Z,3.10
2023-04-21T14:57:29.912Z,3.10
2023-04-21T15:02:33.015Z,3.20
2023-04-21T15:07:36.413Z,2.90
2023-04-21T15:12:39.850Z,3.10
2023-04-21T15:17:42.721Z,2.80
2023-04-21T15:22:45.672Z,3.20
2023-04-21T15:27:48.447Z,3.00
2023-04-21T15:32:51.180Z,3.00
2023-04-21T15:37:53.969Z,2.83
2023-04-21T15:42:56.872Z,2.95
2023-04-21T15:47:59.824Z,2.78
2023-04-21T15:53:09.060Z,2.72
2023-04-21T15:58:13.887Z,3.47
2023-04-21T16:03:16.973Z,3.10
2023-04-21T16:08:19.937Z,2.80
2023-04-21T16:13:22.724Z,3.00
2023-04-21T16:18:25.595Z,2.97
2023-04-21T16:23:28.532Z,3.00
2023-04-21T16:28:31.377Z,3.05
2023-04-21T16:33:34.139Z,3.10
2023-04-21T16:38:36.907Z,3.00
2023-04-21T16:43:39.869Z,2.72
2023-04-21T16:48:43.037Z,2.70
2023-04-21T16:53:45.805Z,2.65
2023-04-21T16:58:48.595Z,2.80
2023-04-21T17:03:51.547Z,3.17
2023-04-21T17:08:59.924Z,3.03
2023-04-21T17:14:02.858Z,3.23
2023-04-21T17:19:05.962Z,3.05
2023-04-21T17:24:08.723Z,3.40
2023-04-21T17:29:11.726Z,3.35
2023-04-21T17:34:14.580Z,3.95
2023-04-21T17:39:17.283Z,4.00
2023-04-21T17:44:20.144Z,3.58
2023-04-21T17:49:25.065Z,3.90
2023-04-21T17:54:28.013Z,3.65
2023-04-21T17:59:31.382Z,3.88
2023-04-21T18:04:34.873Z,4.60
2023-04-21T18:09:38.026Z,3.83
2023-04-21T18:14:40.987Z,4.22
2023-04-21T18:19:43.954Z,5.00
2023-04-21T18:24:46.910Z,4.55
2023-04-21T18:29:50.598Z,6.33
2023-04-21T18:34:53.988Z,9.80
2023-04-21T18:39:56.924Z,13.13
2023-04-21T18:45:02.180Z,13.63
2023-04-21T18:50:11.000Z,12.90
2023-04-21T18:55:15.614Z,12.70
2023-04-21T19:00:18.742Z,12.75
2023-04-21T19:05:21.428Z,10.95
2023-04-21T19:10:24.057Z,9.70
2023-04-21T19:15:26.966Z,8.43
2023-04-21T19:20:30.745Z,8.47
2023-04-21T19:25:34.197Z,7.05
2023-04-21T19:30:37.009Z,7.22
2023-04-21T19:35:39.850Z,6.70
2023-04-21T19:40:45.188Z,7.22
2023-04-21T19:45:48.555Z,6.80
2023-04-21T19:50:51.715Z,6.85
2023-04-21T19:55:54.887Z,8.23
2023-04-21T20:00:57.699Z,7.68
2023-04-21T20:06:01.918Z,8.35
2023-04-21T20:11:04.700Z,9.40
2023-04-21T20:16:07.533Z,8.95
2023-04-21T20:21:10.888Z,9.60
2023-04-21T20:26:13.784Z,9.35
2023-04-21T20:31:19.256Z,9.32
2023-04-21T20:36:22.367Z,8.57
2023-04-21T20:41:24.999Z,9.57
2023-04-21T20:46:29.313Z,9.27
2023-04-21T20:51:33.328Z,10.70
2023-04-21T20:56:35.946Z,10.40
2023-04-21T21:01:41.602Z,10.37
2023-04-21T21:06:44.457Z,10.68
2023-04-21T21:11:47.190Z,11.18
2023-04-21T21:16:50.067Z,12.25
2023-04-21T21:21:52.877Z,12.52
2023-04-21T21:26:55.565Z,11.70
2023-04-21T21:31:58.207Z,11.75
2023-04-21T21:37:01.118Z,12.25
2023-04-21T21:42:03.979Z,12.85
2023-04-21T21:47:06.917Z,13.45
2023-04-21T21:52:09.607Z,12.20
2023-04-21T21:57:12.436Z,10.32
2023-04-21T22:02:15.854Z,11.57
2023-04-21T22:07:19.607Z,12.82
2023-04-21T22:12:22.282Z,12.07
2023-04-21T22:17:25.309Z,12.73
2023-04-21T22:22:27.998Z,13.63
2023-04-21T22:27:33.475Z,13.52
2023-04-21T22:32:36.481Z,13.18
2023-04-21T22:37:39.445Z,14.15
2023-04-21T22:42:42.461Z,12.77
2023-04-21T22:47:45.281Z,13.35
2023-04-21T22:52:48.221Z,13.32
2023-04-21T22:57:51.286Z,12.88
2023-04-21T23:02:54.013Z,12.55
2023-04-21T23:07:56.802Z,13.27
2023-04-21T23:13:01.437Z,13.75
2023-04-21T23:18:05.876Z,14.07
2023-04-21T23:23:08.618Z,12.80
2023-04-21T23:28:11.390Z,13.73
2023-04-21T23:33:14.077Z,12.93
2023-04-21T23:38:16.985Z,11.75
2023-04-21T23:43:19.605Z,12.13
2023-04-21T23:48:22.332Z,10.73
2023-04-21T23:53:25.030Z,11.65
2023-04-21T23:58:28.363Z,11.67
